Overview Statistics Trail Chart Weather Telemetry Raw packets
 

This is the latest recevied weather packets stored in our database for station/object DB7GV-8. If no packets are shown the sender has not sent any weather packets the latest 10 day(s).

<< 25 26 27 28 29 30 31 >>
Time Temp. Humidity Pressure Rain* Wind** Luminosity Snow
1777110111 25° C 22% 1018.1 hPa - - - -
1777109205 25° C 21% 1018.2 hPa - - - -
1777108300 23.89° C 20% 1018.3 hPa - - - -
1777107394 23.89° C 20% 1018.3 hPa - - - -
1777106489 23.33° C 21% 1018.3 hPa - - - -
1777105584 22.78° C 20% 1018.3 hPa - - - -
1777104678 36.67° C 11% 1018.4 hPa - - - -
1777103773 41.11° C 12% 1018.5 hPa - - - -
1777102868 39.44° C 13% 1018.5 hPa - - - -
1777101962 36.67° C 16% 1018.6 hPa - - - -
1777101056 37.22° C 15% 1018.8 hPa - - - -
1777100151 35° C 17% 1019.1 hPa - - - -
1777099246 30.56° C 27% 1019.2 hPa - - - -
1777097435 4.44° C 70% 1019.2 hPa - - - -
1777096530 3.89° C 70% 1019.3 hPa - - - -
1777095624 3.33° C 70% 1019.3 hPa - - - -
1777094719 3.33° C 71% 1019.3 hPa - - - -
1777093813 2.78° C 70% 1019.2 hPa - - - -
1777092907 2.78° C 71% 1019.1 hPa - - - -
1777092002 2.78° C 70% 1019.1 hPa - - - -
1777090192 3.33° C 70% 1018.9 hPa - - - -
1777089286 3.33° C 69% 1019 hPa - - - -
1777088381 3.33° C 69% 1018.9 hPa - - - -
1777087476 3.33° C 68% 1018.9 hPa - - - -
1777086570 3.89° C 67% 1019 hPa - - - -

* Rain since midnight (hover to see other rain measurements)
** Current wind speed in m/s (hover to see current wind gust speed)